TimeCST,TemperatureF,Dew PointF,Humidity,Sea Level PressureIn,VisibilityMPH,Wind Direction,Wind SpeedMPH,Gust SpeedMPH,PrecipitationIn,Events,Conditions,WindDirDegrees,DateUTC
12:53 AM,66.9,59.0,76,29.79,10.0,South,15.0,23.0,N/A,,Overcast,190,2012-12-10 06:53:00
1:53 AM,68.0,60.1,76,29.77,10.0,SSW,13.8,23.0,N/A,,Overcast,200,2012-12-10 07:53:00
2:53 AM,69.1,61.0,75,29.75,10.0,SSW,20.7,25.3,N/A,,Overcast,200,2012-12-10 08:53:00
3:17 AM,68.0,60.8,78,29.78,10.0,SSW,17.3,24.2,0.00,Rain-Thunderstorm,Light Thunderstorms and Rain,210,2012-12-10 09:17:00
3:28 AM,64.4,59.0,83,29.85,1.5,WNW,29.9,38.0,0.09,Rain-Thunderstorm,Heavy Thunderstorms and Rain,290,2012-12-10 09:28:00
3:34 AM,59.0,55.4,88,29.82,2.5,WNW,18.4,39.1,0.28,Rain-Thunderstorm,Heavy Thunderstorms and Rain,300,2012-12-10 09:34:00
3:53 AM,57.9,55.0,90,29.79,2.5,NW,8.1,-,0.52,Rain-Thunderstorm,Heavy Thunderstorms and Rain,320,2012-12-10 09:53:00
4:13 AM,57.2,55.4,94,29.80,3.0,NW,5.8,-,0.11,Rain-Thunderstorm,Heavy Thunderstorms and Rain,320,2012-12-10 10:13:00
4:32 AM,57.2,55.4,94,29.79,3.0,Calm,Calm,-,0.20,Rain,Heavy Rain,0,2012-12-10 10:32:00
4:53 AM,57.9,55.0,90,29.77,10.0,SSE,6.9,-,0.24,Rain,Light Rain,150,2012-12-10 10:53:00
5:53 AM,57.9,55.9,93,29.77,7.0,SSE,8.1,-,0.01,Rain,Rain,150,2012-12-10 11:53:00
6:53 AM,57.9,55.9,93,29.78,4.0,SE,4.6,-,0.10,Rain,Rain,140,2012-12-10 12:53:00
7:16 AM,57.2,55.4,94,29.78,3.0,ESE,4.6,-,0.04,Rain,Rain,120,2012-12-10 13:16:00
7:27 AM,57.2,55.4,94,29.78,2.5,SE,4.6,-,0.07,Rain,Rain,130,2012-12-10 13:27:00
7:53 AM,57.9,55.9,93,29.78,3.0,SSE,5.8,-,0.13,Rain,Rain,160,2012-12-10 13:53:00
8:05 AM,57.2,55.4,94,29.78,1.8,SE,6.9,-,0.03,Rain,Rain,140,2012-12-10 14:05:00
8:38 AM,57.2,55.4,94,29.78,1.8,SSE,8.1,-,0.07,Rain,Light Rain,150,2012-12-10 14:38:00
8:53 AM,59.0,55.9,90,29.76,1.8,SE,9.2,-,0.08,Rain,Rain,140,2012-12-10 14:53:00
9:09 AM,59.0,57.2,94,29.77,1.8,SE,8.1,-,0.02,Rain,Rain,140,2012-12-10 15:09:00
9:41 AM,59.0,57.2,94,29.78,1.8,South,9.2,-,0.06,Rain,Light Rain,170,2012-12-10 15:41:00
9:53 AM,60.1,57.0,90,29.75,4.0,SSE,6.9,-,0.07,Rain,Light Rain,160,2012-12-10 15:53:00
10:53 AM,61.0,57.9,90,29.74,6.0,South,8.1,-,0.02,Rain,Light Rain,180,2012-12-10 16:53:00
11:36 AM,60.8,57.2,88,29.73,10.0,SSW,5.8,-,0.01,,Overcast,200,2012-12-10 17:36:00
11:49 AM,60.8,57.2,88,29.72,10.0,SSW,5.8,-,0.01,Rain,Light Rain,210,2012-12-10 17:49:00
11:53 AM,61.0,57.9,90,29.71,5.0,SSW,4.6,-,0.01,Rain,Light Rain,200,2012-12-10 17:53:00
12:02 PM,60.8,57.2,88,29.72,2.0,South,4.6,-,0.00,Rain,Light Rain,190,2012-12-10 18:02:00
12:12 PM,60.8,57.2,88,29.71,2.0,WNW,12.7,17.3,0.00,Rain,Light Rain,290,2012-12-10 18:12:00
12:53 PM,54.0,52.0,93,29.72,2.0,WNW,15.0,-,0.03,Rain,Light Rain,300,2012-12-10 18:53:00
1:05 PM,53.6,50.0,88,29.75,1.5,WNW,19.6,25.3,0.00,Rain,Light Rain,300,2012-12-10 19:05:00
1:46 PM,51.8,48.2,88,29.76,7.0,NNW,8.1,-,0.02,Rain,Light Rain,340,2012-12-10 19:46:00
1:53 PM,50.0,46.9,89,29.74,10.0,North,10.4,-,0.02,Rain,Light Rain,350,2012-12-10 19:53:00
2:53 PM,50.0,46.0,86,29.78,2.0,NNW,9.2,-,0.01,Rain,Light Rain,340,2012-12-10 20:53:00
3:00 PM,48.2,46.4,93,29.79,2.0,North,8.1,-,0.01,Rain,Light Rain,350,2012-12-10 21:00:00
3:30 PM,48.2,46.4,93,29.81,1.5,NW,8.1,-,0.02,Rain,Light Rain,320,2012-12-10 21:30:00
3:53 PM,46.9,44.1,90,29.82,2.0,NW,12.7,-,0.04,Rain,Light Rain,320,2012-12-10 21:53:00
4:28 PM,46.4,42.8,87,29.84,2.0,NNW,10.4,19.6,0.00,,Overcast,330,2012-12-10 22:28:00
4:30 PM,46.4,42.8,87,29.84,7.0,NNW,9.2,-,0.00,,Overcast,330,2012-12-10 22:30:00
4:49 PM,46.4,42.8,87,29.85,10.0,NNW,11.5,-,0.00,,Overcast,340,2012-12-10 22:49:00
4:53 PM,46.0,42.1,86,29.85,7.0,North,10.4,-,0.00,,Overcast,350,2012-12-10 22:53:00
5:12 PM,44.6,42.8,93,29.86,4.0,NW,9.2,-,N/A,,Overcast,320,2012-12-10 23:12:00
5:53 PM,45.0,41.0,86,29.88,9.0,NNW,11.5,-,0.00,,Overcast,330,2012-12-10 23:53:00
6:18 PM,44.6,41.0,87,29.89,10.0,NW,9.2,-,N/A,,Overcast,320,2012-12-11 00:18:00
6:37 PM,44.6,39.2,81,29.90,10.0,NNW,13.8,-,N/A,,Overcast,340,2012-12-11 00:37:00
6:53 PM,44.1,39.0,82,29.91,10.0,NNW,6.9,-,N/A,,Overcast,330,2012-12-11 00:53:00
7:43 PM,42.8,35.6,76,29.94,10.0,NNW,12.7,-,N/A,,Partly Cloudy,330,2012-12-11 01:43:00
7:53 PM,42.1,35.1,76,29.94,10.0,NNW,12.7,-,N/A,,Partly Cloudy,330,2012-12-11 01:53:00
8:36 PM,39.2,33.8,81,29.96,10.0,NNW,11.5,-,N/A,,Mostly Cloudy,330,2012-12-11 02:36:00
8:53 PM,39.0,33.1,79,29.97,10.0,NNW,10.4,-,N/A,,Mostly Cloudy,330,2012-12-11 02:53:00
9:53 PM,37.9,30.9,76,29.99,10.0,NNW,9.2,-,N/A,,Overcast,340,2012-12-11 03:53:00
10:53 PM,37.9,30.9,76,30.00,10.0,North,9.2,-,N/A,,Overcast,350,2012-12-11 04:53:00
11:53 PM,37.9,30.9,76,30.00,10.0,NNW,8.1,-,N/A,,Overcast,340,2012-12-11 05:53:00